createdAt,value
2024-02-11T00:00:19.849Z,6.80
2024-02-11T00:03:11.636Z,5.80
2024-02-11T00:05:45.833Z,4.80
2024-02-11T00:08:18.187Z,6.70
2024-02-11T00:10:50.822Z,5.90
2024-02-11T00:13:24.341Z,8.40
2024-02-11T00:15:56.477Z,3.90
2024-02-11T00:18:29.941Z,3.40
2024-02-11T00:21:03.132Z,5.40
2024-02-11T00:23:37.609Z,4.40
2024-02-11T00:26:09.625Z,5.10
2024-02-11T00:33:43.189Z,5.10
2024-02-11T00:36:14.954Z,8.10
2024-02-11T00:38:46.962Z,8.10
2024-02-11T00:43:51.545Z,5.50
2024-02-11T00:46:23.773Z,5.90
2024-02-11T00:48:58.329Z,4.70
2024-02-11T00:51:32.281Z,4.60
2024-02-11T00:54:06.765Z,6.50
2024-02-11T00:56:40.038Z,4.60
2024-02-11T00:59:19.305Z,4.50
2024-02-11T01:01:51.828Z,5.40
2024-02-11T01:04:23.654Z,5.70
2024-02-11T01:06:59.274Z,5.40
2024-02-11T01:09:31.695Z,4.80
2024-02-11T01:12:03.676Z,4.10
2024-02-11T01:17:06.217Z,3.30
2024-02-11T01:19:39.817Z,4.10
2024-02-11T01:22:11.643Z,5.40
2024-02-11T01:24:43.485Z,4.30
2024-02-11T01:27:15.602Z,4.40
2024-02-11T01:29:47.322Z,4.20
2024-02-11T01:32:19.202Z,3.50
2024-02-11T01:34:51.073Z,6.00
2024-02-11T01:37:23.373Z,4.10
2024-02-11T01:39:55.156Z,4.80
2024-02-11T01:42:26.981Z,5.40
2024-02-11T01:44:58.774Z,4.60
2024-02-11T01:47:31.614Z,5.60
2024-02-11T01:50:10.155Z,5.70
2024-02-11T01:52:43.037Z,4.90
2024-02-11T01:55:15.564Z,4.90
2024-02-11T01:57:49.187Z,4.50
2024-02-11T02:00:22.874Z,4.50
2024-02-11T02:02:58.777Z,3.00
2024-02-11T02:05:30.777Z,4.40
2024-02-11T02:10:33.133Z,3.30
2024-02-11T02:13:07.008Z,5.60
2024-02-11T02:15:39.042Z,5.70
2024-02-11T02:20:43.834Z,5.50
2024-02-11T02:23:15.934Z,3.50
2024-02-11T02:25:47.836Z,7.30
2024-02-11T02:28:21.692Z,5.00
2024-02-11T02:30:53.469Z,3.60
2024-02-11T02:33:25.280Z,3.30
2024-02-11T02:35:57.104Z,8.10
2024-02-11T02:38:29.131Z,5.20
2024-02-11T02:41:01.206Z,3.40
2024-02-11T02:43:34.304Z,3.70
2024-02-11T02:46:10.702Z,5.00
2024-02-11T02:48:42.439Z,4.90
2024-02-11T02:51:14.243Z,6.30
2024-02-11T02:53:46.548Z,5.50
2024-02-11T02:56:18.570Z,5.90
2024-02-11T03:01:27.537Z,3.60
2024-02-11T03:04:03.638Z,6.00
2024-02-11T03:06:35.461Z,5.00
2024-02-11T03:09:08.624Z,5.10
2024-02-11T03:11:42.265Z,3.40
2024-02-11T03:14:14.131Z,6.10
2024-02-11T03:16:48.529Z,4.40
2024-02-11T03:19:22.453Z,6.00
2024-02-11T03:21:54.821Z,4.80
2024-02-11T03:24:26.807Z,5.10
2024-02-11T03:26:59.032Z,4.60
2024-02-11T03:29:30.748Z,3.50
2024-02-11T03:32:02.533Z,5.20
2024-02-11T03:37:05.741Z,2.80
2024-02-11T03:39:37.718Z,7.10
2024-02-11T03:44:39.836Z,6.20
2024-02-11T03:47:11.695Z,5.00
2024-02-11T03:49:43.476Z,6.20
2024-02-11T03:52:16.036Z,4.20
2024-02-11T03:54:47.919Z,9.20
2024-02-11T03:57:19.648Z,6.00
2024-02-11T03:59:51.318Z,4.90
2024-02-11T04:02:23.081Z,3.90
2024-02-11T04:04:56.304Z,4.30
2024-02-11T04:07:28.141Z,5.20
2024-02-11T04:10:10.918Z,5.00
2024-02-11T04:12:42.697Z,4.00
2024-02-11T04:15:16.623Z,6.40
2024-02-11T04:17:50.141Z,3.70
2024-02-11T04:20:28.272Z,4.80
2024-02-11T04:23:02.468Z,4.60
2024-02-11T04:25:36.195Z,5.00
2024-02-11T04:28:11.245Z,4.50
2024-02-11T04:30:44.503Z,6.50
2024-02-11T04:33:22.576Z,6.50
2024-02-11T04:35:54.624Z,5.50
2024-02-11T04:38:29.244Z,4.40
2024-02-11T04:41:02.826Z,4.80
2024-02-11T04:43:35.679Z,5.40
2024-02-11T04:46:08.476Z,7.30
2024-02-11T04:48:40.227Z,6.90
2024-02-11T04:51:15.990Z,7.80
2024-02-11T04:53:48.971Z,5.80
2024-02-11T04:56:20.822Z,3.70
2024-02-11T04:58:52.654Z,5.80
2024-02-11T05:01:24.899Z,7.10
2024-02-11T05:03:56.703Z,5.20
2024-02-11T05:06:29.088Z,4.90
2024-02-11T05:09:02.659Z,5.40
2024-02-11T05:11:35.993Z,5.60
2024-02-11T05:14:09.138Z,7.50
2024-02-11T05:16:44.075Z,7.40
2024-02-11T05:19:16.220Z,9.00
2024-02-11T05:21:49.544Z,6.50
2024-02-11T05:24:22.231Z,6.60
2024-02-11T05:26:53.890Z,10.80
2024-02-11T05:29:25.599Z,6.50
2024-02-11T05:31:57.446Z,5.70
2024-02-11T05:34:29.182Z,6.80
2024-02-11T05:37:01.322Z,5.20
2024-02-11T05:39:33.074Z,7.60
2024-02-11T05:42:11.190Z,6.30
2024-02-11T05:44:45.680Z,7.40
2024-02-11T05:47:17.429Z,7.00
2024-02-11T05:49:49.356Z,5.80
2024-02-11T05:52:21.075Z,7.20
2024-02-11T05:54:52.837Z,6.10
2024-02-11T05:57:25.298Z,4.90
2024-02-11T05:59:57.410Z,5.00
2024-02-11T06:02:29.213Z,7.20
2024-02-11T06:05:01.050Z,6.40
2024-02-11T06:07:32.954Z,6.20
2024-02-11T06:10:05.352Z,5.50
2024-02-11T06:15:12.652Z,5.20
2024-02-11T06:17:45.024Z,8.00
2024-02-11T06:20:19.709Z,5.80
2024-02-11T06:22:55.059Z,7.40
2024-02-11T06:25:28.113Z,7.50
2024-02-11T06:27:59.843Z,5.30
2024-02-11T06:30:31.584Z,7.90
2024-02-11T06:33:03.464Z,8.70
2024-02-11T06:35:35.264Z,7.60
2024-02-11T06:38:07.248Z,8.10
2024-02-11T06:43:13.225Z,7.00
2024-02-11T06:45:47.790Z,9.40
2024-02-11T06:48:19.962Z,7.30
2024-02-11T06:50:52.303Z,6.30
2024-02-11T06:53:25.149Z,7.10
2024-02-11T06:55:57.352Z,9.00
2024-02-11T06:58:29.104Z,8.90
2024-02-11T07:01:01.074Z,10.20
2024-02-11T07:06:06.692Z,6.40
2024-02-11T07:08:38.560Z,8.40
2024-02-11T07:11:12.895Z,7.50
2024-02-11T07:13:44.769Z,7.20
2024-02-11T07:16:19.301Z,7.20
2024-02-11T07:18:51.079Z,7.80
2024-02-11T07:21:23.901Z,6.90
2024-02-11T07:23:57.552Z,8.00
2024-02-11T07:26:29.442Z,8.00
2024-02-11T07:29:01.833Z,8.20
2024-02-11T07:31:34.861Z,6.00
2024-02-11T07:34:07.484Z,7.40
2024-02-11T07:36:39.661Z,6.90
2024-02-11T07:39:17.325Z,6.20
2024-02-11T07:41:49.332Z,10.40
2024-02-11T07:44:21.119Z,6.10
2024-02-11T07:46:54.861Z,7.60
2024-02-11T07:49:27.587Z,5.00
2024-02-11T07:51:59.354Z,4.50
2024-02-11T07:54:32.492Z,5.30
2024-02-11T07:57:04.832Z,3.50
2024-02-11T07:59:39.003Z,4.80
2024-02-11T08:02:10.831Z,3.40
2024-02-11T08:04:42.658Z,3.60
2024-02-11T08:07:14.868Z,2.20
2024-02-11T08:09:46.646Z,2.40
2024-02-11T08:12:18.413Z,2.60
2024-02-11T08:14:50.164Z,1.30
2024-02-11T08:17:21.995Z,4.00
2024-02-11T08:19:53.785Z,2.30
2024-02-11T08:22:25.842Z,2.10
2024-02-11T08:24:57.687Z,2.20
2024-02-11T08:27:29.446Z,1.50
2024-02-11T08:30:01.119Z,1.50
2024-02-11T08:32:33.431Z,1.10
2024-02-11T08:37:36.005Z,1.40
2024-02-11T08:42:41.294Z,1.90
2024-02-11T08:45:13.725Z,1.50
2024-02-11T08:47:45.751Z,1.50
2024-02-11T08:52:51.684Z,2.10
2024-02-11T08:55:23.508Z,2.00
2024-02-11T08:57:55.428Z,1.60
2024-02-11T09:00:28.299Z,1.50
2024-02-11T09:03:00.081Z,1.60
2024-02-11T09:08:03.319Z,1.90
2024-02-11T09:10:35.540Z,1.60
2024-02-11T09:13:07.665Z,2.00
2024-02-11T09:15:40.095Z,3.20
2024-02-11T09:18:15.291Z,2.00
2024-02-11T09:20:47.195Z,2.80
2024-02-11T09:23:19.894Z,1.60
2024-02-11T09:25:51.695Z,2.70
2024-02-11T09:28:24.342Z,1.90
2024-02-11T09:30:56.454Z,2.20
2024-02-11T09:33:28.796Z,1.30
2024-02-11T09:36:01.026Z,1.50
2024-02-11T09:38:33.245Z,1.50
2024-02-11T09:41:07.348Z,1.10
2024-02-11T09:43:41.456Z,1.90
2024-02-11T09:46:16.937Z,1.90
2024-02-11T09:48:53.804Z,2.80
2024-02-11T09:51:30.476Z,2.30
2024-02-11T09:54:04.191Z,2.20
2024-02-11T09:56:36.095Z,1.90
2024-02-11T09:59:08.251Z,2.20
2024-02-11T10:01:43.036Z,2.30
2024-02-11T10:04:19.452Z,1.50
2024-02-11T10:06:51.461Z,1.40
2024-02-11T10:11:58.165Z,3.40
2024-02-11T10:14:31.364Z,2.10
2024-02-11T10:17:03.152Z,3.80
2024-02-11T10:19:36.464Z,2.60
2024-02-11T10:22:19.963Z,2.30
2024-02-11T10:24:59.894Z,2.00
2024-02-11T10:27:33.086Z,1.90
2024-02-11T10:30:06.829Z,2.90
2024-02-11T10:32:40.701Z,1.60
2024-02-11T10:35:16.343Z,2.60
2024-02-11T10:37:52.369Z,2.80
2024-02-11T10:40:27.699Z,2.90
2024-02-11T10:43:01.123Z,3.60
2024-02-11T10:45:33.351Z,2.60
2024-02-11T10:48:05.701Z,2.40
2024-02-11T10:50:38.591Z,3.00
2024-02-11T10:53:14.364Z,1.70
2024-02-11T10:55:50.464Z,2.80
2024-02-11T10:58:28.560Z,3.80
2024-02-11T11:01:03.196Z,2.80
2024-02-11T11:03:40.943Z,2.80
2024-02-11T11:06:22.260Z,2.70
2024-02-11T11:08:55.852Z,2.80
2024-02-11T11:11:28.225Z,4.30
2024-02-11T11:14:09.187Z,3.30
2024-02-11T11:16:42.797Z,3.50
2024-02-11T11:19:17.156Z,4.50
2024-02-11T11:21:57.236Z,2.80
2024-02-11T11:24:29.027Z,2.90
2024-02-11T11:27:00.857Z,4.80
2024-02-11T11:29:33.793Z,3.50
2024-02-11T11:32:10.977Z,3.80
2024-02-11T11:34:43.862Z,3.10
2024-02-11T11:37:16.909Z,2.70
2024-02-11T11:39:50.163Z,4.80
2024-02-11T11:42:22.730Z,3.20
2024-02-11T11:44:54.926Z,3.20
2024-02-11T11:47:27.133Z,5.80
2024-02-11T11:49:59.849Z,4.00
2024-02-11T11:52:31.775Z,4.20
2024-02-11T11:57:34.877Z,4.90
2024-02-11T12:00:09.071Z,4.90
2024-02-11T12:02:49.689Z,4.40
2024-02-11T12:05:21.912Z,3.80
2024-02-11T12:07:54.465Z,4.20
2024-02-11T12:10:28.008Z,3.50
2024-02-11T12:13:00.206Z,5.20
2024-02-11T12:15:32.328Z,4.60
2024-02-11T12:18:04.836Z,6.20
2024-02-11T12:20:39.371Z,3.40
2024-02-11T12:23:13.944Z,3.90
2024-02-11T12:25:45.982Z,5.20
2024-02-11T12:28:28.554Z,3.60
2024-02-11T12:31:10.892Z,2.70
2024-02-11T12:33:47.387Z,4.00
2024-02-11T12:36:26.853Z,3.30
2024-02-11T12:39:01.675Z,4.40
2024-02-11T12:41:37.902Z,3.10
2024-02-11T12:44:11.771Z,2.90
2024-02-11T12:46:48.050Z,3.20
2024-02-11T12:49:20.313Z,3.60
2024-02-11T12:51:52.428Z,5.50
2024-02-11T12:54:24.371Z,4.10
2024-02-11T12:59:35.225Z,3.20
2024-02-11T13:02:07.647Z,3.50
2024-02-11T13:04:39.811Z,2.90
2024-02-11T13:07:12.820Z,3.50
2024-02-11T13:09:44.553Z,3.30
2024-02-11T13:12:16.417Z,2.70
2024-02-11T13:17:18.609Z,3.40
2024-02-11T13:19:50.547Z,3.20
2024-02-11T13:24:55.061Z,3.50
2024-02-11T13:27:28.819Z,3.40
2024-02-11T13:30:00.835Z,4.70
2024-02-11T13:32:33.386Z,3.40
2024-02-11T13:35:05.661Z,2.30
2024-02-11T13:37:38.914Z,2.40
2024-02-11T13:40:13.446Z,3.40
2024-02-11T13:42:45.875Z,3.60
2024-02-11T13:45:17.713Z,3.10
2024-02-11T13:50:20.190Z,2.00
2024-02-11T13:52:52.653Z,3.20
2024-02-11T13:55:24.616Z,4.30
2024-02-11T14:00:27.260Z,4.30
2024-02-11T14:02:59.397Z,2.50
2024-02-11T14:05:31.721Z,2.60
2024-02-11T14:08:05.095Z,3.20
2024-02-11T14:10:37.051Z,3.90
2024-02-11T14:13:09.460Z,3.00
2024-02-11T14:15:41.739Z,3.20
2024-02-11T14:18:13.933Z,4.40
2024-02-11T14:20:46.492Z,3.30
2024-02-11T14:23:18.323Z,2.60
2024-02-11T14:25:50.417Z,3.90
2024-02-11T14:28:23.841Z,4.40
2024-02-11T14:30:57.977Z,4.80
2024-02-11T14:33:30.550Z,5.00
2024-02-11T14:36:02.770Z,3.10
2024-02-11T14:38:35.508Z,4.80
2024-02-11T14:41:10.219Z,3.80
2024-02-11T14:43:42.845Z,3.40
2024-02-11T14:46:14.949Z,3.70
2024-02-11T14:48:47.348Z,3.60
2024-02-11T14:51:20.715Z,3.90
2024-02-11T14:53:52.524Z,2.80
2024-02-11T14:56:28.206Z,2.40
2024-02-11T14:59:02.862Z,3.60
2024-02-11T15:01:35.187Z,3.30
2024-02-11T15:06:37.803Z,2.50
2024-02-11T15:09:10.323Z,3.60
2024-02-11T15:11:42.377Z,2.40
2024-02-11T15:14:14.356Z,2.00
2024-02-11T15:16:47.332Z,2.00
2024-02-11T15:19:20.188Z,2.30
2024-02-11T15:21:51.962Z,2.60
2024-02-11T15:24:23.851Z,3.10
2024-02-11T15:26:55.694Z,4.20
2024-02-11T15:29:27.507Z,4.90
2024-02-11T15:31:59.288Z,5.50
2024-02-11T15:34:31.256Z,2.20
2024-02-11T15:37:03.269Z,2.10
2024-02-11T15:39:35.493Z,3.70
2024-02-11T15:42:10.193Z,2.60
2024-02-11T15:44:42.109Z,5.70
2024-02-11T15:47:14.382Z,3.50
2024-02-11T15:49:46.203Z,2.40
2024-02-11T15:52:18.188Z,2.10
2024-02-11T15:54:50.170Z,3.30
2024-02-11T15:59:56.890Z,2.90
2024-02-11T16:02:30.202Z,3.50
2024-02-11T16:05:05.528Z,3.20
2024-02-11T16:07:37.721Z,5.10
2024-02-11T16:10:12.028Z,2.70
2024-02-11T16:12:45.431Z,5.20
2024-02-11T16:15:19.491Z,2.70
2024-02-11T16:17:51.719Z,3.40
2024-02-11T16:20:25.259Z,2.80
2024-02-11T16:22:57.608Z,3.70
2024-02-11T16:25:29.466Z,3.20
2024-02-11T16:28:01.697Z,5.00
2024-02-11T16:30:35.655Z,8.60
2024-02-11T16:33:07.972Z,6.70
2024-02-11T16:35:40.901Z,4.30
2024-02-11T16:38:13.201Z,2.10
2024-02-11T16:40:46.417Z,3.60
2024-02-11T16:43:18.294Z,3.10
2024-02-11T16:45:50.095Z,4.90
2024-02-11T16:48:24.417Z,2.60
2024-02-11T16:51:00.098Z,2.90
2024-02-11T16:53:32.258Z,3.70
2024-02-11T16:56:04.662Z,4.40
2024-02-11T16:58:36.396Z,3.30
2024-02-11T17:01:08.831Z,2.10
2024-02-11T17:03:40.636Z,2.60
2024-02-11T17:06:14.840Z,3.70
2024-02-11T17:08:47.018Z,2.70
2024-02-11T17:11:21.433Z,4.70
2024-02-11T17:13:53.478Z,2.90
2024-02-11T17:16:25.290Z,2.00
2024-02-11T17:18:57.112Z,3.10
2024-02-11T17:21:29.493Z,5.80
2024-02-11T17:26:33.741Z,2.30
2024-02-11T17:29:05.652Z,3.90
2024-02-11T17:34:15.156Z,2.20
2024-02-11T17:36:53.949Z,4.30
2024-02-11T17:39:27.522Z,3.80
2024-02-11T17:42:00.054Z,3.00
2024-02-11T17:44:35.428Z,3.00
2024-02-11T17:47:08.198Z,3.60
2024-02-11T17:49:40.736Z,2.80
2024-02-11T17:52:20.881Z,3.60
2024-02-11T17:54:55.750Z,3.70
2024-02-11T17:57:27.532Z,3.40
2024-02-11T18:00:00.599Z,3.30
2024-02-11T18:02:32.983Z,3.40
2024-02-11T18:05:05.331Z,3.40
2024-02-11T18:07:39.689Z,3.20
2024-02-11T18:10:14.609Z,3.40
2024-02-11T18:12:48.688Z,3.30
2024-02-11T18:15:22.887Z,3.00
2024-02-11T18:17:56.829Z,3.30
2024-02-11T18:20:31.449Z,3.60
2024-02-11T18:23:06.530Z,5.70
2024-02-11T18:25:54.947Z,3.50
2024-02-11T18:28:33.989Z,5.30
2024-02-11T18:31:11.057Z,3.30
2024-02-11T18:36:23.436Z,4.30
2024-02-11T18:39:04.479Z,7.90
2024-02-11T18:41:39.176Z,3.70
2024-02-11T18:44:12.541Z,3.40
2024-02-11T18:46:45.971Z,4.70
2024-02-11T18:49:19.500Z,3.80
2024-02-11T18:54:23.239Z,2.60
2024-02-11T18:56:58.506Z,4.70
2024-02-11T18:59:34.109Z,4.30
2024-02-11T19:02:09.237Z,3.40
2024-02-11T19:04:44.110Z,5.40
2024-02-11T19:07:17.387Z,4.70
2024-02-11T19:09:52.916Z,3.80
2024-02-11T19:12:27.527Z,3.30
2024-02-11T19:15:01.162Z,4.60
2024-02-11T19:17:35.486Z,2.60
2024-02-11T19:20:10.688Z,4.40
2024-02-11T19:22:46.968Z,8.80
2024-02-11T19:25:19.104Z,5.90
2024-02-11T19:27:53.884Z,4.50
2024-02-11T19:30:27.886Z,10.50
2024-02-11T19:33:02.505Z,7.50
2024-02-11T19:35:35.600Z,5.40
2024-02-11T19:38:09.751Z,3.20
2024-02-11T19:40:43.609Z,4.20
2024-02-11T19:43:18.923Z,5.50
2024-02-11T19:45:54.358Z,3.70
2024-02-11T19:48:28.802Z,3.50
2024-02-11T19:51:01.950Z,6.70
2024-02-11T19:53:38.884Z,5.30
2024-02-11T19:56:13.733Z,6.20
2024-02-11T19:58:46.893Z,5.40
2024-02-11T20:01:20.597Z,5.00
2024-02-11T20:03:52.404Z,6.20
2024-02-11T20:06:26.517Z,5.00
2024-02-11T20:09:01.132Z,5.20
2024-02-11T20:11:34.198Z,5.60
2024-02-11T20:14:09.629Z,4.70
2024-02-11T20:16:48.661Z,3.60
2024-02-11T20:19:24.144Z,8.40
2024-02-11T20:21:59.962Z,5.90
2024-02-11T20:24:34.900Z,7.90
2024-02-11T20:27:09.234Z,5.40
2024-02-11T20:29:53.380Z,5.80
2024-02-11T20:32:25.280Z,7.70
2024-02-11T20:34:58.844Z,6.70
2024-02-11T20:37:35.055Z,7.10
2024-02-11T20:40:17.920Z,8.20
2024-02-11T20:42:50.704Z,6.50
2024-02-11T20:45:24.242Z,7.40
2024-02-11T20:47:56.685Z,8.20
2024-02-11T20:50:28.706Z,9.10
2024-02-11T20:53:02.092Z,6.00
2024-02-11T20:58:11.233Z,6.80
2024-02-11T21:00:45.823Z,5.20
2024-02-11T21:03:20.086Z,5.10
2024-02-11T21:05:55.752Z,5.00
2024-02-11T21:08:29.114Z,6.90
2024-02-11T21:11:06.339Z,6.20
2024-02-11T21:13:40.895Z,5.80
2024-02-11T21:16:16.994Z,4.50
2024-02-11T21:18:51.766Z,5.70
2024-02-11T21:21:26.604Z,5.10
2024-02-11T21:26:33.726Z,4.80
2024-02-11T21:29:09.771Z,4.50
2024-02-11T21:31:43.200Z,4.70
2024-02-11T21:34:17.173Z,5.60
2024-02-11T21:36:52.305Z,6.90
2024-02-11T21:39:24.585Z,7.00
2024-02-11T21:41:56.880Z,4.60
2024-02-11T21:44:28.674Z,6.70
2024-02-11T21:47:00.519Z,6.90
2024-02-11T21:49:32.475Z,5.70
2024-02-11T21:52:04.411Z,4.90
2024-02-11T21:54:36.307Z,4.20
2024-02-11T21:57:08.251Z,5.50
2024-02-11T21:59:40.016Z,4.40
2024-02-11T22:02:13.034Z,7.00
2024-02-11T22:04:45.184Z,4.40
2024-02-11T22:09:51.567Z,4.50
2024-02-11T22:12:25.543Z,6.90
2024-02-11T22:14:57.264Z,4.00
2024-02-11T22:17:30.537Z,4.90
2024-02-11T22:20:03.165Z,3.90
2024-02-11T22:22:35.108Z,4.10
2024-02-11T22:25:11.430Z,3.30
2024-02-11T22:27:43.608Z,5.50
2024-02-11T22:32:46.095Z,4.00
2024-02-11T22:37:48.725Z,4.00
2024-02-11T22:40:20.573Z,4.00
2024-02-11T22:42:52.371Z,4.20
2024-02-11T22:45:24.394Z,7.00
2024-02-11T22:50:27.164Z,4.10
2024-02-11T22:52:59.468Z,3.60
2024-02-11T22:55:31.381Z,4.70
2024-02-11T22:58:03.269Z,4.90
2024-02-11T23:00:43.973Z,4.70
2024-02-11T23:03:19.640Z,3.90
2024-02-11T23:05:51.645Z,5.40
2024-02-11T23:08:26.285Z,4.30
2024-02-11T23:10:58.099Z,4.10
2024-02-11T23:13:30.551Z,3.20
2024-02-11T23:16:02.474Z,3.40
2024-02-11T23:18:35.008Z,5.60
2024-02-11T23:21:07.118Z,3.60
2024-02-11T23:26:10.050Z,2.90
2024-02-11T23:28:41.798Z,4.40
2024-02-11T23:31:14.188Z,3.80
2024-02-11T23:33:48.746Z,3.50
2024-02-11T23:36:21.139Z,2.90
2024-02-11T23:38:53.898Z,3.50
2024-02-11T23:41:25.619Z,3.70
2024-02-11T23:43:57.464Z,4.00
2024-02-11T23:46:30.470Z,4.00
2024-02-11T23:49:02.600Z,2.50
2024-02-11T23:51:35.157Z,3.50
2024-02-11T23:54:07.383Z,2.40
2024-02-11T23:56:41.671Z,2.50
2024-02-11T23:59:14.576Z,3.10
